createdAt,value
2023-01-01T05:16:26.284Z,100204.22
2023-01-01T05:18:53.065Z,100209.59
2023-01-01T05:21:22.187Z,100210.69
2023-01-01T05:23:49.422Z,100224.91
2023-01-01T05:26:23.286Z,100229.97
2023-01-01T05:28:50.160Z,100229.50
2023-01-01T05:31:22.660Z,100235.63
2023-01-01T05:33:50.268Z,100232.75
2023-01-01T05:36:22.876Z,100236.84
2023-01-01T05:38:50.990Z,100233.50
2023-01-01T05:41:19.154Z,100239.91
2023-01-01T05:43:46.800Z,100240.84
2023-01-01T05:46:17.203Z,100238.53
2023-01-01T05:48:45.271Z,100233.19
2023-01-01T05:51:15.448Z,100237.00
2023-01-01T05:53:42.730Z,100233.88
2023-01-01T05:56:09.769Z,100233.56
2023-01-01T05:58:37.664Z,100245.22
2023-01-01T06:01:16.314Z,100243.31
2023-01-01T06:03:44.130Z,100240.28
2023-01-01T06:06:17.249Z,100244.97
2023-01-01T06:08:51.857Z,100245.25
2023-01-01T06:11:43.536Z,100249.41
2023-01-01T06:14:12.289Z,100251.50
2023-01-01T06:16:39.548Z,100250.06
2023-01-01T06:19:06.717Z,100262.50
2023-01-01T06:21:38.156Z,100263.22
2023-01-01T06:24:05.520Z,100267.53
2023-01-01T06:26:33.302Z,100267.47
2023-01-01T06:29:01.252Z,100259.75
2023-01-01T06:31:28.894Z,100260.19
2023-01-01T06:33:56.113Z,100272.00
2023-01-01T06:36:23.755Z,100281.69
2023-01-01T06:38:53.091Z,100277.03
2023-01-01T06:41:21.831Z,100280.91
2023-01-01T06:43:48.839Z,100280.25
2023-01-01T06:46:30.116Z,100288.31
2023-01-01T06:48:59.363Z,100292.00
2023-01-01T06:51:29.447Z,100289.66
2023-01-01T06:54:00.039Z,100297.63
2023-01-01T06:56:27.417Z,100294.53
2023-01-01T06:58:53.893Z,100292.75
2023-01-01T07:01:23.355Z,100307.31
2023-01-01T07:04:19.362Z,100306.78
2023-01-01T07:06:45.799Z,100309.19
2023-01-01T07:09:12.424Z,100307.56
2023-01-01T07:11:38.954Z,100308.88
2023-01-01T07:14:05.488Z,100300.25
2023-01-01T07:16:32.045Z,100306.63
2023-01-01T07:18:58.603Z,100316.13
2023-01-01T07:21:31.759Z,100313.59
2023-01-01T07:24:02.993Z,100315.09
2023-01-01T07:26:31.113Z,100323.81
2023-01-01T07:29:04.682Z,100329.28
2023-01-01T07:31:33.542Z,100327.72
2023-01-01T07:34:00.176Z,100339.13
2023-01-01T07:36:26.600Z,100341.72
2023-01-01T07:38:53.050Z,100347.44
2023-01-01T07:41:19.490Z,100356.19
2023-01-01T07:43:46.005Z,100352.06
2023-01-01T07:46:13.925Z,100356.81
2023-01-01T07:48:40.540Z,100361.47
2023-01-01T07:51:07.069Z,100361.72
2023-01-01T07:53:33.892Z,100365.97
2023-01-01T07:56:00.542Z,100365.56
2023-01-01T07:58:27.062Z,100364.97
2023-01-01T08:00:53.906Z,100372.19
2023-01-01T08:03:20.466Z,100363.53
2023-01-01T08:05:48.665Z,100354.41
2023-01-01T08:08:15.196Z,100340.63
2023-01-01T08:10:41.899Z,100344.53
2023-01-01T08:13:08.926Z,100344.75
2023-01-01T08:15:35.689Z,100360.81
2023-01-01T08:18:04.535Z,100367.75
2023-01-01T08:20:32.147Z,100361.84
2023-01-01T08:23:06.933Z,100360.81
2023-01-01T08:25:35.181Z,100366.06
2023-01-01T08:28:01.831Z,100366.22
2023-01-01T08:30:28.312Z,100373.97
2023-01-01T08:32:54.935Z,100381.22
2023-01-01T08:35:21.556Z,100383.00
2023-01-01T08:37:48.010Z,100380.09
2023-01-01T08:40:15.745Z,100385.63
2023-01-01T08:42:42.205Z,100382.50
2023-01-01T08:45:09.110Z,100393.44
2023-01-01T08:47:35.625Z,100398.59
2023-01-01T08:50:02.083Z,100397.50
2023-01-01T08:52:28.606Z,100401.44
2023-01-01T08:54:55.067Z,100391.63
2023-01-01T08:57:21.620Z,100394.81
2023-01-01T08:59:48.034Z,100389.25
2023-01-01T09:02:14.597Z,100398.09
2023-01-01T09:04:41.170Z,100395.25
2023-01-01T09:07:07.626Z,100400.06
2023-01-01T09:09:34.193Z,100409.75
2023-01-01T09:12:05.941Z,100409.34
2023-01-01T09:14:34.044Z,100412.06
2023-01-01T09:17:01.219Z,100421.94
2023-01-01T09:19:28.195Z,100427.97
2023-01-01T09:21:55.023Z,100419.44
2023-01-01T09:24:21.504Z,100435.47
2023-01-01T09:26:48.261Z,100448.53
2023-01-01T09:29:18.508Z,100439.34
2023-01-01T09:31:45.601Z,100432.03
2023-01-01T09:34:12.451Z,100428.81
2023-01-01T09:36:39.141Z,100429.13
2023-01-01T09:39:06.405Z,100431.72
2023-01-01T09:41:57.434Z,100422.78
2023-01-01T09:45:02.145Z,100426.28
2023-01-01T09:47:42.718Z,100425.56
2023-01-01T09:50:27.946Z,100428.50
2023-01-01T09:53:04.616Z,100425.88
2023-01-01T09:55:53.968Z,100434.22
2023-01-01T09:58:27.499Z,100429.88
2023-01-01T10:00:59.708Z,100417.75
2023-01-01T10:03:51.317Z,100415.16
2023-01-01T10:06:33.806Z,100415.97
2023-01-01T10:09:12.591Z,100417.66
2023-01-01T10:12:08.058Z,100411.44
2023-01-01T10:14:38.520Z,100416.44
2023-01-01T10:17:34.919Z,100420.34
2023-01-01T10:20:07.341Z,100419.00
2023-01-01T10:22:42.418Z,100415.75
2023-01-01T10:25:21.436Z,100413.53
2023-01-01T10:28:01.991Z,100424.03
2023-01-01T10:30:29.713Z,100416.56
2023-01-01T10:32:57.222Z,100415.41
2023-01-01T10:35:35.402Z,100416.22
2023-01-01T10:38:04.104Z,100417.59
2023-01-01T10:40:31.601Z,100411.53
2023-01-01T10:43:01.052Z,100421.28
2023-01-01T10:45:38.121Z,100417.13
2023-01-01T10:48:20.126Z,100401.19
2023-01-01T10:50:56.881Z,100408.13
2023-01-01T10:53:30.905Z,100402.31
2023-01-01T10:55:59.498Z,100405.34
2023-01-01T10:58:42.834Z,100399.13
2023-01-01T11:01:20.628Z,100401.97
2023-01-01T11:04:08.921Z,100405.72
2023-01-01T11:06:38.368Z,100396.06
2023-01-01T11:09:07.311Z,100395.44
2023-01-01T11:11:44.122Z,100395.28
2023-01-01T11:14:23.229Z,100380.94
2023-01-01T11:16:49.960Z,100381.75
2023-01-01T11:19:24.230Z,100378.56
2023-01-01T11:21:50.818Z,100362.63
2023-01-01T11:24:21.836Z,100366.16
2023-01-01T11:26:54.851Z,100362.03
2023-01-01T11:29:29.838Z,100372.84
2023-01-01T11:32:00.688Z,100370.22
2023-01-01T11:34:41.161Z,100356.53
2023-01-01T11:37:28.643Z,100358.66
2023-01-01T11:39:57.800Z,100354.72
2023-01-01T11:42:30.681Z,100353.81
2023-01-01T11:45:01.496Z,100355.56
2023-01-01T11:47:38.010Z,100337.94
2023-01-01T11:50:13.603Z,100345.78
2023-01-01T11:52:49.053Z,100340.94
2023-01-01T11:55:36.147Z,100347.13
2023-01-01T11:58:25.809Z,100360.09
2023-01-01T12:00:59.562Z,100363.81
2023-01-01T12:03:34.933Z,100366.69
2023-01-01T12:06:20.797Z,100369.25
2023-01-01T12:08:55.047Z,100369.13
2023-01-01T12:11:27.604Z,100367.91
2023-01-01T12:14:05.057Z,100357.91
2023-01-01T12:16:55.050Z,100363.84
2023-01-01T12:19:27.599Z,100366.25
2023-01-01T12:21:58.718Z,100362.41
2023-01-01T12:24:33.010Z,100364.94
2023-01-01T12:27:15.720Z,100367.41
2023-01-01T12:29:48.480Z,100360.69
2023-01-01T12:32:42.722Z,100368.56
2023-01-01T12:35:30.851Z,100376.03
2023-01-01T12:38:05.093Z,100366.16
2023-01-01T12:40:55.046Z,100373.38
2023-01-01T12:44:01.720Z,100364.09
2023-01-01T12:46:43.110Z,100353.50
2023-01-01T12:49:30.239Z,100344.25
2023-01-01T12:52:15.287Z,100339.06
2023-01-01T12:55:06.835Z,100339.88
2023-01-01T12:58:21.880Z,100349.47
2023-01-01T13:00:59.145Z,100343.13
2023-01-01T13:03:32.703Z,100343.56
2023-01-01T13:06:01.477Z,100346.53
2023-01-01T13:08:31.395Z,100347.41
2023-01-01T13:10:59.957Z,100339.16
2023-01-01T13:13:26.761Z,100344.59
2023-01-01T13:15:57.442Z,100350.13
2023-01-01T13:18:29.251Z,100341.25
2023-01-01T13:21:19.394Z,100350.25
2023-01-01T13:23:47.031Z,100344.66
2023-01-01T13:26:22.906Z,100350.56
2023-01-01T13:28:58.561Z,100345.94
2023-01-01T13:31:41.954Z,100347.13
2023-01-01T13:34:37.597Z,100355.38
2023-01-01T13:37:12.700Z,100347.25
2023-01-01T13:39:56.542Z,100356.91
2023-01-01T13:43:04.298Z,100347.94
2023-01-01T13:46:11.198Z,100353.00
2023-01-01T13:48:48.469Z,100352.28
2023-01-01T13:54:44.296Z,100353.97
2023-01-01T13:57:23.682Z,100358.22
2023-01-01T14:00:11.415Z,100357.19
2023-01-01T14:03:06.376Z,100363.91
2023-01-01T14:05:38.011Z,100355.84
2023-01-01T14:08:09.962Z,100351.03
2023-01-01T14:10:39.538Z,100344.84
2023-01-01T14:13:06.010Z,100353.56
2023-01-01T14:15:34.047Z,100364.81
2023-01-01T14:18:04.452Z,100361.28
2023-01-01T14:20:52.436Z,100363.19
2023-01-01T14:23:28.321Z,100373.41
2023-01-01T14:25:54.982Z,100371.22
2023-01-01T14:28:27.659Z,100372.91
2023-01-01T14:30:55.891Z,100372.28
2023-01-01T14:33:33.419Z,100362.78
2023-01-01T14:36:02.460Z,100367.28
2023-01-01T14:38:34.607Z,100369.50
2023-01-01T14:41:14.026Z,100371.81
2023-01-01T14:43:43.053Z,100363.66
2023-01-01T14:46:16.586Z,100366.16
2023-01-01T14:48:49.677Z,100364.72
2023-01-01T14:51:22.982Z,100358.13
2023-01-01T14:53:51.842Z,100361.56
2023-01-01T14:56:28.155Z,100372.22
2023-01-01T14:59:21.330Z,100370.13
2023-01-01T15:02:00.595Z,100370.22
2023-01-01T15:04:27.752Z,100370.91
2023-01-01T15:06:56.731Z,100374.66
2023-01-01T15:09:23.647Z,100368.94
2023-01-01T15:11:56.780Z,100363.06
2023-01-01T15:14:37.599Z,100364.75
2023-01-01T15:17:12.180Z,100366.69
2023-01-01T15:19:41.421Z,100370.34
2023-01-01T15:22:10.880Z,100364.03
2023-01-01T15:24:38.365Z,100355.66
2023-01-01T15:27:07.057Z,100361.16
2023-01-01T15:29:39.932Z,100365.56
2023-01-01T15:32:23.066Z,100369.13
2023-01-01T15:34:52.565Z,100366.94
2023-01-01T15:37:21.143Z,100378.38
2023-01-01T15:39:53.204Z,100359.94
2023-01-01T15:42:33.897Z,100356.47
2023-01-01T15:45:28.327Z,100356.28
2023-01-01T15:47:55.923Z,100351.06
2023-01-01T15:50:45.383Z,100360.19
2023-01-01T15:53:18.477Z,100354.25
2023-01-01T15:55:50.584Z,100350.84
2023-01-01T15:58:26.426Z,100355.38
2023-01-01T16:01:02.556Z,100356.91
2023-01-01T16:03:31.750Z,100360.44
2023-01-01T16:05:58.398Z,100357.78
2023-01-01T16:08:26.424Z,100352.75
2023-01-01T16:10:53.198Z,100348.72
2023-01-01T16:13:19.652Z,100347.56
2023-01-01T16:15:58.293Z,100350.09
2023-01-01T16:18:30.763Z,100337.34
2023-01-01T16:20:57.590Z,100345.47
2023-01-01T16:23:24.106Z,100340.34
2023-01-01T16:25:50.633Z,100336.97
2023-01-01T16:28:17.262Z,100336.34
2023-01-01T16:30:44.353Z,100348.16
2023-01-01T16:33:15.772Z,100343.00
2023-01-01T16:35:46.428Z,100330.78
2023-01-01T16:38:12.902Z,100326.13
2023-01-01T16:40:39.510Z,100319.75
2023-01-01T16:43:09.682Z,100323.78
2023-01-01T16:45:36.171Z,100332.38
2023-01-01T16:48:02.753Z,100331.66
2023-01-01T16:50:29.264Z,100325.72
2023-01-01T16:52:55.726Z,100325.41
2023-01-01T16:55:23.294Z,100323.84
2023-01-01T16:57:49.774Z,100314.69
2023-01-01T17:00:16.508Z,100320.50
2023-01-01T17:02:43.194Z,100319.25
2023-01-01T17:05:10.635Z,100320.69
2023-01-01T17:07:37.142Z,100315.56
2023-01-01T17:10:04.440Z,100310.78
2023-01-01T17:12:31.512Z,100316.97
2023-01-01T17:14:58.205Z,100308.06
2023-01-01T17:17:26.524Z,100290.66
2023-01-01T17:19:52.951Z,100290.56
2023-01-01T17:22:21.196Z,100283.41
2023-01-01T17:24:47.685Z,100278.81
2023-01-01T17:27:14.177Z,100286.00
2023-01-01T17:29:40.644Z,100269.72
2023-01-01T17:32:07.475Z,100261.59
2023-01-01T17:34:34.417Z,100274.94
2023-01-01T17:37:01.152Z,100283.16
2023-01-01T17:39:29.671Z,100289.50
2023-01-01T17:41:57.933Z,100284.34
2023-01-01T17:44:24.602Z,100279.13
2023-01-01T17:49:58.529Z,100281.06
2023-01-01T17:52:25.235Z,100278.16
2023-01-01T17:54:51.881Z,100277.91
2023-01-01T17:57:19.127Z,100272.69
2023-01-01T17:59:45.916Z,100266.94
2023-01-01T18:02:17.443Z,100262.78
2023-01-01T18:04:47.595Z,100267.97
2023-01-01T18:07:16.901Z,100253.09
2023-01-01T18:09:50.307Z,100245.13
2023-01-01T18:12:19.227Z,100245.94
2023-01-01T18:14:45.735Z,100243.13
2023-01-01T18:17:12.489Z,100246.72
2023-01-01T18:19:39.057Z,100245.59
2023-01-01T18:22:06.648Z,100248.59
2023-01-01T18:24:33.202Z,100250.69
2023-01-01T18:26:59.673Z,100235.53
2023-01-01T18:29:26.135Z,100229.38
2023-01-01T18:31:52.682Z,100234.38
2023-01-01T18:34:19.275Z,100235.72
2023-01-01T18:36:46.988Z,100233.06
2023-01-01T18:39:33.232Z,100238.19
2023-01-01T18:42:29.483Z,100235.09
2023-01-01T18:45:08.563Z,100221.63
2023-01-01T18:47:35.015Z,100220.56
2023-01-01T18:50:29.859Z,100223.41
2023-01-01T18:53:11.546Z,100215.59
2023-01-01T18:55:38.612Z,100214.19
2023-01-01T18:58:22.211Z,100205.25
2023-01-01T19:00:53.145Z,100199.78
2023-01-01T19:03:29.073Z,100207.38
2023-01-01T19:05:57.916Z,100208.03
2023-01-01T19:08:28.491Z,100198.00
2023-01-01T19:11:00.214Z,100191.75
2023-01-01T19:13:40.351Z,100186.06
2023-01-01T19:16:19.828Z,100185.75
2023-01-01T19:18:49.094Z,100187.06
2023-01-01T19:21:23.092Z,100182.84
2023-01-01T19:24:02.090Z,100180.19
2023-01-01T19:26:34.011Z,100188.16
2023-01-01T19:29:19.831Z,100187.38
2023-01-01T19:31:51.963Z,100183.50
2023-01-01T19:34:19.053Z,100184.28
2023-01-01T19:36:46.315Z,100173.91
2023-01-01T19:39:14.984Z,100177.31
2023-01-01T19:41:41.688Z,100174.50
2023-01-01T19:44:10.398Z,100166.59
2023-01-01T19:46:40.590Z,100165.75
2023-01-01T19:49:08.464Z,100178.06
2023-01-01T19:51:35.143Z,100168.69
2023-01-01T19:54:02.006Z,100161.38
2023-01-01T19:56:28.560Z,100170.09
2023-01-01T19:58:57.396Z,100177.28
2023-01-01T20:01:24.186Z,100167.25
2023-01-01T20:03:55.726Z,100165.09
2023-01-01T20:06:23.844Z,100165.75
2023-01-01T20:08:51.395Z,100154.91
2023-01-01T20:11:17.868Z,100162.94
2023-01-01T20:13:44.650Z,100156.66
2023-01-01T20:16:11.386Z,100154.84
2023-01-01T20:18:53.306Z,100149.53
2023-01-01T20:21:38.565Z,100149.84
2023-01-01T20:24:05.683Z,100157.09
2023-01-01T20:26:38.370Z,100154.72
2023-01-01T20:29:20.145Z,100160.88
2023-01-01T20:31:47.847Z,100162.94
2023-01-01T20:34:14.412Z,100149.72
2023-01-01T20:37:00.137Z,100145.13
2023-01-01T20:39:26.779Z,100150.06
2023-01-01T20:41:53.990Z,100146.34
2023-01-01T20:44:20.980Z,100143.72
2023-01-01T20:46:48.286Z,100147.00
2023-01-01T20:49:17.088Z,100147.78
2023-01-01T20:51:49.842Z,100155.59
2023-01-01T20:54:16.844Z,100147.22
2023-01-01T20:56:44.065Z,100162.19
2023-01-01T20:59:34.087Z,100159.59
2023-01-01T21:01:59.964Z,100163.53
2023-01-01T21:04:26.785Z,100169.84
2023-01-01T21:06:53.895Z,100161.66
2023-01-01T21:09:20.414Z,100168.13
2023-01-01T21:11:47.874Z,100156.44
2023-01-01T21:14:14.443Z,100158.81
2023-01-01T21:16:44.860Z,100161.88
2023-01-01T21:19:12.454Z,100161.03
2023-01-01T21:21:48.233Z,100164.75
2023-01-01T21:24:21.366Z,100164.75
2023-01-01T21:26:50.021Z,100159.47
2023-01-01T21:29:19.735Z,100166.41
2023-01-01T21:31:50.044Z,100161.31
2023-01-01T21:34:38.986Z,100156.00
2023-01-01T21:37:13.934Z,100166.78
2023-01-01T21:39:41.700Z,100172.34
2023-01-01T21:42:24.543Z,100168.34
2023-01-01T21:44:57.556Z,100164.97
2023-01-01T21:47:25.995Z,100160.69
2023-01-01T21:49:56.372Z,100166.81
2023-01-01T21:52:25.838Z,100162.59
2023-01-01T21:54:53.238Z,100167.63
2023-01-01T21:57:23.550Z,100170.31
2023-01-01T21:59:51.762Z,100165.34
2023-01-01T22:02:32.086Z,100166.00
2023-01-01T22:05:01.515Z,100164.22
2023-01-01T22:10:25.408Z,100160.19
2023-01-01T22:12:57.673Z,100163.88
2023-01-01T22:15:27.581Z,100168.69
2023-01-01T22:18:20.596Z,100172.91
2023-01-01T22:20:47.659Z,100180.94
2023-01-01T22:23:27.963Z,100173.00
2023-01-01T22:25:54.613Z,100168.50
2023-01-01T22:28:27.361Z,100162.88
2023-01-01T22:30:59.049Z,100162.88
2023-01-01T22:33:41.871Z,100164.06
2023-01-01T22:36:19.587Z,100177.91
2023-01-01T22:38:46.640Z,100179.22
2023-01-01T22:41:14.288Z,100171.88
2023-01-01T22:43:46.722Z,100153.22
2023-01-01T22:46:17.882Z,100176.84
2023-01-01T22:49:21.299Z,100166.19
2023-01-01T22:51:51.589Z,100173.50
2023-01-01T22:54:18.419Z,100183.16
2023-01-01T22:56:45.098Z,100170.28
2023-01-01T22:59:11.654Z,100162.81
